This is the latest recevied weather packets stored in our database for station/object K8RRT. If no packets are shown the sender has not sent any weather packets the latest 10 day(s).
| Time | Temp. | Humidity | Pressure | Rain* | Wind** | Luminosity | Snow |
|---|---|---|---|---|---|---|---|
| 1788096056 | 25.56° C | 84% | 1016.9 hPa | 0 mm | - | 275 W/m² | - |
| 1788095755 | 25.56° C | 84% | 1017 hPa | 0 mm | - | 235 W/m² | - |
| 1788095450 | 25° C | 84% | 1016.9 hPa | 0 mm | - | 252 W/m² | - |
| 1788095144 | 24.44° C | 88% | 1017.3 hPa | 0 mm | - | 261 W/m² | - |
| 1788094840 | 23.89° C | 90% | 1017.1 hPa | 0 mm | - | 203 W/m² | - |
| 1788094534 | 23.89° C | 91% | 1017.1 hPa | 0 mm | - | 138 W/m² | - |
| 1788094233 | 24.44° C | 88% | 1016.9 hPa | 0 mm | - | 74 W/m² | - |
| 1788093932 | 24.44° C | 88% | 1016.9 hPa | 0 mm | - | 84 W/m² | - |
| 1788093628 | 23.33° C | 93% | 1016.9 hPa | 0 mm | - | 81 W/m² | - |
| 1788093325 | 21.67° C | 99% | 1017 hPa | 0 mm | - | 80 W/m² | - |
| 1788093020 | 21.67° C | 99% | 1017.1 hPa | 0 mm | - | 81 W/m² | - |
| 1788092717 | 21.11° C | 99% | 1017.3 hPa | 0 mm | - | 79 W/m² | - |
| 1788092413 | 20.56° C | 99% | 1017 hPa | 0 mm | - | 104 W/m² | - |
| 1788092109 | 20.56° C | 99% | 1017 hPa | 0 mm | - | 85 W/m² | - |
| 1788091808 | 20.56° C | 99% | 1016.9 hPa | 0 mm | - | 69 W/m² | - |
| 1788091503 | 20.56° C | 99% | 1016.7 hPa | 0 mm | - | 72 W/m² | - |
| 1788091199 | 20° C | 99% | 1016.8 hPa | 0 mm | - | 67 W/m² | - |
| 1788090895 | 20° C | 99% | 1016.8 hPa | 0 mm | - | 67 W/m² | - |
| 1788090590 | 19.44° C | 99% | 1016.9 hPa | 0 mm | - | 57 W/m² | - |
| 1788090287 | 19.44° C | 99% | 1016.9 hPa | 0 mm | - | 45 W/m² | - |
| 1788089986 | 19.44° C | 99% | 1016.7 hPa | 0 mm | - | 35 W/m² | - |
| 1788089682 | 18.89° C | 99% | 1016.8 hPa | 0 mm | - | 30 W/m² | - |
| 1788089377 | 18.89° C | 99% | 1016.9 hPa | 0 mm | - | 25 W/m² | - |
| 1788089073 | 18.89° C | 99% | 1016.8 hPa | 0 mm | - | 21 W/m² | - |
| 1788088769 | 18.89° C | 99% | 1016.7 hPa | 0 mm | - | 16 W/m² | - |
* Rain latest hour (hover to see other rain measurements)
** Current wind speed in m/s (hover to see current wind gust speed)